Skip to main content.
Station Historical Data
 
Daily Summary for August 19, 2017 Units:  Both    English   Metric
« Previous Day
Next Day »
Daily Weekly Monthly Yearly Custom
  Current: High: Low: Average:
Temperature: 62.4 °F /  16.9 °C 68.5 °F /  20.3 °C 62.4 °F /  16.9 °C 65.7 °F /  18.7 °C
Dew Point: 60.4 °F /  15.8 °C 65.3 °F /  18.5 °C 60.4 °F /  15.8 °C 63 °F /  17.2 °C
Humidity: 93 % 94 % 88 % 91 %
Wind Speed: 0 mph /  0.0 km/h 5 mph /  8.0 km/h - 1.7 mph /  2.8 km/h
Wind Gust: 0 mph /  0.0 km/h 6.9 mph /  11.1 km/h - -
Wind:Calm - - West
Pressure: 29.9 in /  1012.4 hPa 29.9 in /  1012.4 hPa 29.9 in /  1011.7 hPa -
Precipitation: 0 in /  0.0 mm      
Historical Graphs
 
 
Tabular Data for August 19, 2017
Time Temperature Dew Point Pressure Wind Wind Speed Wind Gust Humidity Rainfall Rate (Hourly) solar Conditions
00:02 67.3 °F /  19.6 °C 64.2 °F /  17.9 °C 29.9 in /  1012.1 hPa NNW 1.9 mph /  3.1 km/h 2.3 mph /  3.7 km/h 90 % 0 in /  0.0 mm 0.0 W/m2 FEW
00:03 67.3 °F /  19.6 °C 64.2 °F /  17.9 °C 29.9 in /  1012.1 hPa NW 1.9 mph /  3.1 km/h 2.3 mph /  3.7 km/h 90 % 0 in /  0.0 mm 0.0 W/m2 FEW
00:08 67.1 °F /  19.5 °C 64 °F /  17.8 °C 29.9 in /  1012.1 hPa NW 3.9 mph /  6.3 km/h 4 mph /  6.4 km/h 90 % 0 in /  0.0 mm 0.0 W/m2 FEW
00:13 66.9 °F /  19.4 °C 63.9 °F /  17.7 °C 29.9 in /  1012.1 hPa NW 4.8 mph /  7.7 km/h 5 mph /  8.0 km/h 90 % 0 in /  0.0 mm 0.0 W/m2 FEW
00:18 66.7 °F /  19.3 °C 63.9 °F /  17.7 °C 29.9 in /  1012.1 hPa NW 2 mph /  3.2 km/h 3.5 mph /  5.6 km/h 90 % 0 in /  0.0 mm 0.0 W/m2 FEW
00:23 66.9 °F /  19.4 °C 64.2 °F /  17.9 °C 29.9 in /  1012.1 hPa WNW 2.4 mph /  3.9 km/h 3.5 mph /  5.6 km/h 91 % 0 in /  0.0 mm 0.0 W/m2 FEW
00:28 66.9 °F /  19.4 °C 64.2 °F /  17.9 °C 29.9 in /  1012.1 hPa WNW 2.8 mph /  4.5 km/h 3.5 mph /  5.6 km/h 91 % 0 in /  0.0 mm 0.0 W/m2 FEW
00:33 67.1 °F /  19.5 °C 64.4 °F /  18.0 °C 29.9 in /  1012.1 hPa WNW 2.9 mph /  4.7 km/h 3.5 mph /  5.6 km/h 91 % 0 in /  0.0 mm 0.0 W/m2 FEW
00:38 67.3 °F /  19.6 °C 64.6 °F /  18.1 °C 29.9 in /  1012.1 hPa WNW 3 mph /  4.8 km/h 3.5 mph /  5.6 km/h 91 % 0 in /  0.0 mm 0.0 W/m2 FEW
00:43 67.5 °F /  19.7 °C 64.8 °F /  18.2 °C 29.9 in /  1012.1 hPa WNW 3 mph /  4.8 km/h 3.5 mph /  5.6 km/h 91 % 0 in /  0.0 mm 0.0 W/m2 FEW
00:48 67.6 °F /  19.8 °C 64.9 °F /  18.3 °C 29.9 in /  1012.1 hPa NW 3.7 mph /  6.0 km/h 4 mph /  6.4 km/h 91 % 0 in /  0.0 mm 0.0 W/m2 FEW
00:53 67.6 °F /  19.8 °C 64.9 °F /  18.3 °C 29.9 in /  1012.1 hPa WNW 1.9 mph /  3.1 km/h 4.6 mph /  7.4 km/h 91 % 0 in /  0.0 mm 0.0 W/m2 FEW
00:58 67.8 °F /  19.9 °C 64.8 °F /  18.2 °C 29.9 in /  1012.1 hPa West 2 mph /  3.2 km/h 3.5 mph /  5.6 km/h 90 % 0 in /  0.0 mm 0.0 W/m2 FEW
01:03 67.8 °F /  19.9 °C 64.8 °F /  18.2 °C 29.9 in /  1012.1 hPa West 2.2 mph /  3.5 km/h 3.5 mph /  5.6 km/h 90 % 0 in /  0.0 mm 0.0 W/m2 FEW
01:08 67.8 °F /  19.9 °C 64.9 °F /  18.3 °C 29.9 in /  1012.1 hPa West 2.3 mph /  3.7 km/h 3.5 mph /  5.6 km/h 90 % 0 in /  0.0 mm 0.0 W/m2 FEW
01:13 68.2 °F /  20.1 °C 65.1 °F /  18.4 °C 29.9 in /  1012.1 hPa West 2.8 mph /  4.5 km/h 3.5 mph /  5.6 km/h 90 % 0 in /  0.0 mm 0.0 W/m2 FEW
01:18 68.2 °F /  20.1 °C 65.1 °F /  18.4 °C 29.9 in /  1012.1 hPa WNW 2.2 mph /  3.5 km/h 3.5 mph /  5.6 km/h 90 % 0 in /  0.0 mm 0.0 W/m2 FEW
01:23 68.4 °F /  20.2 °C 65.3 °F /  18.5 °C 29.9 in /  1012.1 hPa NW 2.8 mph /  4.5 km/h 3.5 mph /  5.6 km/h 90 % 0 in /  0.0 mm 0.0 W/m2 FEW
01:28 68.4 °F /  20.2 °C 64.9 °F /  18.3 °C 29.9 in /  1012.1 hPa WNW 3 mph /  4.8 km/h 3.5 mph /  5.6 km/h 89 % 0 in /  0.0 mm 0.0 W/m2 FEW
01:33 68.5 °F /  20.3 °C 64.8 °F /  18.2 °C 29.9 in /  1012.1 hPa NW 3 mph /  4.8 km/h 3.5 mph /  5.6 km/h 88 % 0 in /  0.0 mm 0.0 W/m2 FEW
01:35 68.4 °F /  20.2 °C 64.8 °F /  18.2 °C 29.9 in /  1012.1 hPa WNW 3 mph /  4.8 km/h 3.5 mph /  5.6 km/h 88 % 0 in /  0.0 mm 0.0 W/m2 FEW
01:40 68.2 °F /  20.1 °C 64.6 °F /  18.1 °C 29.9 in /  1012.1 hPa NNW 3.2 mph /  5.1 km/h 4 mph /  6.4 km/h 88 % 0 in /  0.0 mm 0.0 W/m2 FEW
01:45 67.8 °F /  19.9 °C 64.2 °F /  17.9 °C 29.9 in /  1012.1 hPa West 1.8 mph /  2.9 km/h 3.5 mph /  5.6 km/h 88 % 0 in /  0.0 mm 0.0 W/m2 FEW
01:50 67.6 °F /  19.8 °C 64.2 °F /  17.9 °C 29.9 in /  1012.1 hPa NW 2.1 mph /  3.4 km/h 3.5 mph /  5.6 km/h 89 % 0 in /  0.0 mm 0.0 W/m2 FEW
01:55 67.5 °F /  19.7 °C 64 °F /  17.8 °C 29.9 in /  1012.1 hPa WNW 2.1 mph /  3.4 km/h 3.5 mph /  5.6 km/h 89 % 0 in /  0.0 mm 0.0 W/m2 FEW
01:56 67.5 °F /  19.7 °C 64 °F /  17.8 °C 29.9 in /  1011.7 hPa WNW 2 mph /  3.2 km/h 3.5 mph /  5.6 km/h 89 % 0 in /  0.0 mm 0.0 W/m2 FEW
02:01 67.3 °F /  19.6 °C 63.9 °F /  17.7 °C 29.9 in /  1012.1 hPa WNW 2 mph /  3.2 km/h 2.3 mph /  3.7 km/h 89 % 0 in /  0.0 mm 0.0 W/m2 FEW
02:06 67.1 °F /  19.5 °C 64 °F /  17.8 °C 29.9 in /  1012.1 hPa NW 2 mph /  3.2 km/h 2.3 mph /  3.7 km/h 90 % 0 in /  0.0 mm 0.0 W/m2 FEW
02:11 66.9 °F /  19.4 °C 64 °F /  17.8 °C 29.9 in /  1012.1 hPa WNW 1.2 mph /  1.9 km/h 2.3 mph /  3.7 km/h 90 % 0 in /  0.0 mm 0.0 W/m2 FEW
02:16 66.9 °F /  19.4 °C 64.2 °F /  17.9 °C 29.9 in /  1012.1 hPa WNW 1.1 mph /  1.8 km/h 2.3 mph /  3.7 km/h 91 % 0 in /  0.0 mm 0.0 W/m2 FEW
02:21 66.9 °F /  19.4 °C 64.2 °F /  17.9 °C 29.9 in /  1012.1 hPa NW 2.1 mph /  3.4 km/h 3.5 mph /  5.6 km/h 91 % 0 in /  0.0 mm 0.0 W/m2 FEW
02:22 66.9 °F /  19.4 °C 63.9 °F /  17.7 °C 29.9 in /  1011.7 hPa NNW 2 mph /  3.2 km/h 3.5 mph /  5.6 km/h 90 % 0 in /  0.0 mm 0.0 W/m2 FEW
02:27 66.6 °F /  19.2 °C 63.5 °F /  17.5 °C 29.9 in /  1011.7 hPa NNW 3 mph /  4.8 km/h 3.5 mph /  5.6 km/h 90 % 0 in /  0.0 mm 0.0 W/m2 FEW
02:32 66 °F /  18.9 °C 63.1 °F /  17.3 °C 29.9 in /  1012.1 hPa NNW 4 mph /  6.4 km/h 4.6 mph /  7.4 km/h 90 % 0 in /  0.0 mm 0.0 W/m2 FEW
02:37 65.7 °F /  18.7 °C 62.8 °F /  17.1 °C 29.9 in /  1012.1 hPa North 4.1 mph /  6.6 km/h 4.6 mph /  7.4 km/h 90 % 0 in /  0.0 mm 0.0 W/m2 FEW
02:42 65.7 °F /  18.7 °C 63 °F /  17.2 °C 29.9 in /  1011.7 hPa North 4.3 mph /  6.9 km/h 5 mph /  8.0 km/h 91 % 0 in /  0.0 mm 0.0 W/m2 FEW
02:47 65.5 °F /  18.6 °C 62.8 °F /  17.1 °C 29.9 in /  1012.1 hPa NNW 3.9 mph /  6.3 km/h 4.6 mph /  7.4 km/h 91 % 0 in /  0.0 mm 0.0 W/m2 FEW
02:52 65.3 °F /  18.5 °C 63 °F /  17.2 °C 29.9 in /  1012.1 hPa North 3.9 mph /  6.3 km/h 4 mph /  6.4 km/h 92 % 0 in /  0.0 mm 0.0 W/m2 FEW
02:57 65.1 °F /  18.4 °C 62.8 °F /  17.1 °C 29.9 in /  1012.1 hPa ENE 4.1 mph /  6.6 km/h 5.8 mph /  9.3 km/h 92 % 0 in /  0.0 mm 0.0 W/m2 FEW
03:02 65.1 °F /  18.4 °C 62.8 °F /  17.1 °C 29.9 in /  1012.1 hPa NNE 4.7 mph /  7.6 km/h 6 mph /  9.7 km/h 92 % 0 in /  0.0 mm 0.0 W/m2 FEW
03:07 65.1 °F /  18.4 °C 62.8 °F /  17.1 °C 29.9 in /  1012.1 hPa North 3.4 mph /  5.5 km/h 4.6 mph /  7.4 km/h 92 % 0 in /  0.0 mm 0.0 W/m2 FEW
03:12 65.1 °F /  18.4 °C 62.8 °F /  17.1 °C 29.9 in /  1012.1 hPa North 3.2 mph /  5.1 km/h 4.6 mph /  7.4 km/h 92 % 0 in /  0.0 mm 0.0 W/m2 FEW
03:17 64.9 °F /  18.3 °C 62.6 °F /  17.0 °C 29.9 in /  1012.1 hPa North 3.4 mph /  5.5 km/h 4.6 mph /  7.4 km/h 92 % 0 in /  0.0 mm 0.0 W/m2 FEW
03:22 64.9 °F /  18.3 °C 62.6 °F /  17.0 °C 29.9 in /  1012.1 hPa NNE 4.4 mph /  7.1 km/h 5.8 mph /  9.3 km/h 92 % 0 in /  0.0 mm 0.0 W/m2 FEW
03:27 64.9 °F /  18.3 °C 62.6 °F /  17.0 °C 29.9 in /  1012.1 hPa North 5 mph /  8.0 km/h 6.9 mph /  11.1 km/h 92 % 0 in /  0.0 mm 0.0 W/m2 FEW
03:32 64.9 °F /  18.3 °C 62.4 °F /  16.9 °C 29.9 in /  1012.1 hPa North 4 mph /  6.4 km/h 5.8 mph /  9.3 km/h 92 % 0 in /  0.0 mm 0.0 W/m2 FEW
03:37 64.9 °F /  18.3 °C 62.4 °F /  16.9 °C 29.9 in /  1012.1 hPa North 3 mph /  4.8 km/h 4.6 mph /  7.4 km/h 92 % 0 in /  0.0 mm 0.0 W/m2 FEW
03:42 64.9 °F /  18.3 °C 62.4 °F /  16.9 °C 29.9 in /  1012.1 hPa North 1.7 mph /  2.7 km/h 3.5 mph /  5.6 km/h 92 % 0 in /  0.0 mm 0.0 W/m2 FEW
03:47 64.9 °F /  18.3 °C 62.4 °F /  16.9 °C 29.9 in /  1012.1 hPa Calm     92 % 0 in /  0.0 mm 0.0 W/m2 FEW
03:52 64.9 °F /  18.3 °C 62.4 °F /  16.9 °C 29.9 in /  1012.1 hPa Calm     92 % 0 in /  0.0 mm 0.0 W/m2 FEW
03:57 64.9 °F /  18.3 °C 62.4 °F /  16.9 °C 29.9 in /  1012.1 hPa Calm     92 % 0 in /  0.0 mm 0.0 W/m2 FEW
04:02 64.8 °F /  18.2 °C 62.4 °F /  16.9 °C 29.9 in /  1012.1 hPa Calm     92 % 0 in /  0.0 mm 0.0 W/m2 FEW
04:07 64.8 °F /  18.2 °C 62.4 °F /  16.9 °C 29.9 in /  1011.7 hPa Calm     92 % 0 in /  0.0 mm 0.0 W/m2 FEW
04:12 64.6 °F /  18.1 °C 61.9 °F /  16.6 °C 29.9 in /  1012.1 hPa Calm     91 % 0 in /  0.0 mm 0.0 W/m2 FEW
04:17 64.2 °F /  17.9 °C 61.5 °F /  16.4 °C 29.9 in /  1012.1 hPa Calm     91 % 0 in /  0.0 mm 0.0 W/m2 FEW
04:22 64.2 °F /  17.9 °C 61.9 °F /  16.6 °C 29.9 in /  1011.7 hPa Calm     92 % 0 in /  0.0 mm 0.0 W/m2 FEW
04:27 64.2 °F /  17.9 °C 61.9 °F /  16.6 °C 29.9 in /  1011.7 hPa Calm     92 % 0 in /  0.0 mm 0.0 W/m2 FEW
04:32 64.2 °F /  17.9 °C 61.9 °F /  16.6 °C 29.9 in /  1011.7 hPa Calm     92 % 0 in /  0.0 mm 0.0 W/m2 FEW
04:37 64.2 °F /  17.9 °C 61.9 °F /  16.6 °C 29.9 in /  1011.7 hPa Calm     92 % 0 in /  0.0 mm 0.0 W/m2 FEW
04:42 64.2 °F /  17.9 °C 61.9 °F /  16.6 °C 29.9 in /  1011.7 hPa Calm     92 % 0 in /  0.0 mm 0.0 W/m2 FEW
04:47 64 °F /  17.8 °C 61.7 °F /  16.5 °C 29.9 in /  1011.7 hPa Calm     92 % 0 in /  0.0 mm 0.0 W/m2 FEW
04:52 64 °F /  17.8 °C 61.5 °F /  16.4 °C 29.9 in /  1011.7 hPa Calm     92 % 0 in /  0.0 mm 0.0 W/m2 FEW
04:57 63.9 °F /  17.7 °C 61.3 °F /  16.3 °C 29.9 in /  1011.7 hPa Calm     92 % 0 in /  0.0 mm 0.0 W/m2 FEW
05:02 63.7 °F /  17.6 °C 61.2 °F /  16.2 °C 29.9 in /  1011.7 hPa Calm     92 % 0 in /  0.0 mm 0.0 W/m2 FEW
05:07 63.5 °F /  17.5 °C 61.3 °F /  16.3 °C 29.9 in /  1011.7 hPa Calm     93 % 0 in /  0.0 mm 0.0 W/m2 FEW
05:12 63.5 °F /  17.5 °C 61.3 °F /  16.3 °C 29.9 in /  1012.1 hPa Calm     93 % 0 in /  0.0 mm 0.0 W/m2 FEW
05:17 63.5 °F /  17.5 °C 61.3 °F /  16.3 °C 29.9 in /  1011.7 hPa Calm     93 % 0 in /  0.0 mm 0.0 W/m2 FEW
05:22 63.5 °F /  17.5 °C 61.3 °F /  16.3 °C 29.9 in /  1012.1 hPa Calm     93 % 0 in /  0.0 mm 0.0 W/m2 FEW
05:27 63.7 °F /  17.6 °C 61.5 °F /  16.4 °C 29.9 in /  1012.1 hPa Calm     93 % 0 in /  0.0 mm 0.0 W/m2 FEW
05:32 63.5 °F /  17.5 °C 61.3 °F /  16.3 °C 29.9 in /  1012.1 hPa Calm     93 % 0 in /  0.0 mm 0.0 W/m2 FEW
05:37 63.5 °F /  17.5 °C 61.3 °F /  16.3 °C 29.9 in /  1012.1 hPa Calm     93 % 0 in /  0.0 mm 0.0 W/m2 FEW
05:39 63.3 °F /  17.4 °C 61.3 °F /  16.3 °C 29.9 in /  1012.1 hPa Calm     93 % 0 in /  0.0 mm 0.0 W/m2 FEW
05:44 63.1 °F /  17.3 °C 61.2 °F /  16.2 °C 29.9 in /  1012.1 hPa Calm     93 % 0 in /  0.0 mm 0.0 W/m2 FEW
05:49 63.1 °F /  17.3 °C 61.3 °F /  16.3 °C 29.9 in /  1012.1 hPa Calm     94 % 0 in /  0.0 mm 0.0 W/m2 FEW
05:54 63.1 °F /  17.3 °C 61.2 °F /  16.2 °C 29.9 in /  1012.1 hPa Calm     93 % 0 in /  0.0 mm 0.0 W/m2 FEW
05:59 63 °F /  17.2 °C 61 °F /  16.1 °C 29.9 in /  1012.1 hPa Calm     93 % 0 in /  0.0 mm 0.0 W/m2 FEW
06:04 62.8 °F /  17.1 °C 60.6 °F /  15.9 °C 29.9 in /  1012.1 hPa Calm     93 % 0 in /  0.0 mm 0.0 W/m2 FEW
06:09 62.6 °F /  17.0 °C 60.4 °F /  15.8 °C 29.9 in /  1012.1 hPa Calm     93 % 0 in /  0.0 mm 0.0 W/m2 FEW
06:14 62.4 °F /  16.9 °C 60.4 °F /  15.8 °C 29.9 in /  1012.4 hPa Calm     93 % 0 in /  0.0 mm 0.0 W/m2 FEW
Friend Weather
Compliments of Weather Underground - 1 mb